Data for 05/11/2016

Time Sea-Level Adjusted Pressure Absolute Pressure Temperature Relative Humidity Dew Point   
(mb) (inHg) (mb) (inHg) (C) (F) (%) (C) (F)
00:05 1025 30.27 854 25.22 1 33.8 83 -1.5 29.3
00:10 1025 30.27 854 25.22 1.1 34 82 -1.6 29.1
00:15 1024 30.24 854 25.22 1.1 34 83 -1.4 29.4
00:20 1025 30.27 854 25.22 1.1 33.9 84 -1.3 29.6
00:25 1025 30.27 854 25.22 0.9 33.7 85 -1.4 29.5
00:30 1025 30.27 854 25.22 0.8 33.5 88 -0.9 30.4
00:35 1025 30.27 854 25.22 0.6 33.1 90 -0.9 30.4
00:40 1025 30.27 854 25.22 0.6 33 90 -0.9 30.5
00:45 1025 30.27 854 25.22 0.6 33 88 -1.2 29.9
00:50 1025 30.27 854 25.22 0.7 33.2 86 -1.4 29.5
00:55 1025 30.27 854 25.22 0.8 33.4 87 -1.1 30
01:00 1025 30.27 854 25.22 0.5 33 87 -1.4 29.5
01:05 1024 30.24 854 25.22 0.6 33.1 87 -1.3 29.7
01:10 1025 30.27 854 25.22 0.6 33 86 -1.5 29.2
01:15 1025 30.27 854 25.22 0.7 33.2 85 -1.5 29.2
01:20 1025 30.27 854 25.22 0.7 33.3 86 -1.4 29.5
01:25 1025 30.27 854 25.22 0.7 33.2 83 -1.8 28.7
01:30 1025 30.27 854 25.22 0.7 33.3 82 -2 28.4
01:35 1025 30.27 854 25.22 0.8 33.4 82 -1.9 28.6
01:40 1025 30.27 854 25.22 0.7 33.3 85 -1.6 29.2
01:45 1025 30.27 854 25.22 0.6 33 87 -1.3 29.6
01:50 1025 30.27 854 25.22 0.4 32.7 87 -1.5 29.3
01:55 1025 30.27 854 25.22 0.3 32.6 85 -1.8 28.7
02:00 1025 30.27 854 25.22 0.6 33 79 -2.6 27.3
02:05 1025 30.27 854 25.22 0.7 33.3 84 -1.7 29
02:10 1025 30.27 854 25.22 0.6 33.2 85 -1.5 29.3
02:15 1025 30.27 854 25.22 0.5 33 82 -2.1 28.2
02:20 1025 30.27 854 25.22 0.5 32.9 85 -1.7 29
02:25 1025 30.27 854 25.22 0.4 32.8 83 -2.1 28.3
02:30 1025 30.27 854 25.22 0.5 32.8 81 -2.4 27.7
02:35 1025 30.27 854 25.22 0.5 32.9 81 -2.4 27.8
02:40 1025 30.27 854 25.22 0.4 32.8 79 -2.7 27.1
02:45 1025 30.27 854 25.22 0.6 33.1 78 -2.8 26.9
02:50 1025 30.27 854 25.22 0.8 33.4 83 -1.8 28.7
02:55 1025 30.27 854 25.22 0.7 33.2 82 -2 28.4
03:00 1025 30.27 854 25.22 0.6 33.2 84 -1.7 29
03:05 1025 30.27 854 25.22 0.5 33 83 -2 28.5
03:10 1025 30.27 854 25.22 0.4 32.7 87 -1.5 29.3
03:15 1025 30.27 854 25.22 0.3 32.6 80 -2.8 27
03:20 1025 30.27 854 25.22 0.5 32.9 82 -2.2 28
03:25 1025 30.27 854 25.22 0.5 32.9 79 -2.7 27.2
03:30 1025 30.27 854 25.22 0.6 33 79 -2.7 27.1
03:35 1025 30.27 854 25.22 0.5 32.8 84 -1.9 28.5
03:40 1025 30.27 854 25.22 0.3 32.5 83 -2.3 27.8
03:45 1025 30.27 854 25.22 0.4 32.7 78 -3 26.6
03:50 1025 30.27 854 25.22 0.4 32.7 82 -2.3 27.8
03:55 1025 30.27 854 25.22 0.3 32.5 81 -2.6 27.3
04:00 1025 30.27 854 25.22 0.3 32.6 82 -2.4 27.6
04:05 1025 30.27 854 25.22 0.4 32.8 83 -2.2 28
04:10 1025 30.27 854 25.22 0.4 32.7 80 -2.6 27.3
04:15 1025 30.27 854 25.22 0.5 32.9 82 -2.3 27.9
04:20 1025 30.27 854 25.22 0.4 32.8 85 -1.8 28.8
04:25 1025 30.27 854 25.22 0.2 32.3 84 -2.2 28
04:30 1025 30.27 854 25.22 0.1 32.1 85 -2.2 28.1
04:35 1025 30.27 854 25.22 -0.1 31.8 87 -2.1 28.3
04:40 1025 30.27 854 25.22 -0.1 31.7 85 -2.4 27.8
04:45 1025 30.27 854 25.22 0.1 32.2 85 -2.1 28.3
04:50 1025 30.27 854 25.22 0 32.1 85 -2.1 28.2
04:55 1025 30.27 854 25.22 0.1 32.1 86 -2 28.4
05:00 1025 30.27 854 25.22 0 32.1 83 -2.5 27.5
05:05 1025 30.27 854 25.22 0.2 32.4 82 -2.4 27.6
05:10 1025 30.27 854 25.22 0 32.1 85 -2.2 28.1
05:15 1025 30.27 854 25.22 -0.3 31.4 89 -2 28.4
05:20 1025 30.27 854 25.22 -0.6 31 89 -2.1 28.3
05:25 1025 30.27 854 25.22 -0.6 30.9 89 -2.2 28.1
05:30 1025 30.27 854 25.22 -0.6 31 87 -2.5 27.5
05:35 1025 30.27 855 25.25 -0.5 31.1 86 -2.5 27.5
05:40 1025 30.27 855 25.25 -0.6 31 86 -2.7 27.2
05:45 1025 30.27 855 25.25 -0.6 31 84 -2.9 26.8
05:50 1025 30.27 855 25.25 -0.4 31.3 83 -3 26.6
05:55 1025 30.27 855 25.25 -0.3 31.4 84 -2.7 27.2
06:00 1026 30.3 855 25.25 -0.5 31.1 85 -2.7 27.2
06:05 1026 30.3 855 25.25 -0.3 31.4 82 -3.1 26.4
06:10 1026 30.3 855 25.25 0.2 32.3 82 -2.6 27.3
06:15 1026 30.3 855 25.25 0.4 32.7 81 -2.5 27.5
06:20 1026 30.3 855 25.25 0.7 33.2 82 -2.1 28.3
06:25 1026 30.3 855 25.25 1.1 34 81 -1.8 28.7
06:30 1026 30.3 855 25.25 1.3 34.4 81 -1.6 29
06:35 1026 30.3 855 25.25 1.5 34.7 79 -1.8 28.8
06:40 1026 30.3 855 25.25 1.6 34.8 79 -1.7 28.9
06:45 1026 30.3 855 25.25 1.9 35.3 77 -1.8 28.7
06:50 1026 30.3 855 25.25 2.2 35.9 73 -2.1 28.1
06:55 1026 30.3 855 25.25 2.6 36.6 72 -2 28.4
07:00 1026 30.3 855 25.25 2.8 37 72 -1.8 28.7
07:05 1026 30.3 855 25.25 2.8 37 68 -2.5 27.4
07:10 1026 30.3 855 25.25 2.9 37.3 68 -2.4 27.7
07:15 1026 30.3 855 25.25 3.4 38.1 69 -1.7 29
07:20 1026 30.3 855 25.25 3.7 38.7 70 -1.3 29.7
07:25 1026 30.3 855 25.25 3.9 39.1 70 -1.1 30
07:30 1026 30.3 855 25.25 4.3 39.8 68 -1 30.1
07:35 1026 30.3 855 25.25 5 41 65 -1 30.2
07:40 1026 30.3 855 25.25 5.5 41.8 65 -0.6 31
07:45 1026 30.3 855 25.25 5 41 67 -0.7 30.7
07:50 1026 30.3 855 25.25 5.2 41.3 65 -0.7 30.7
07:55 1026 30.3 855 25.25 5.7 42.2 64 -0.6 31
08:00 1026 30.3 855 25.25 5.8 42.4 66 -0.1 31.8
08:05 1026 30.3 855 25.25 5.9 42.7 63 -0.6 30.8
08:10 1026 30.3 855 25.25 5.4 41.7 66 -0.3 31.4
08:15 1026 30.3 855 25.25 4.9 40.9 65 -1.1 30
08:20 1026 30.3 855 25.25 5.2 41.4 64 -1.1 30.1
08:25 1026 30.3 855 25.25 5.1 41.1 67 -0.6 31
08:30 1026 30.3 855 25.25 4.7 40.5 65 -1.3 29.7
08:35 1026 30.3 855 25.25 5 41 63 -1.5 29.2
08:40 1026 30.3 855 25.25 5.8 42.4 51 -3.5 25.6
08:45 1026 30.3 855 25.25 5.8 42.5 54 -2.8 27
08:50 1026 30.3 855 25.25 6.7 44.1 52 -2.4 27.7
08:55 1026 30.3 855 25.25 7.7 45.8 48 -2.6 27.3
09:00 1026 30.3 855 25.25 7.7 45.9 46 -3.2 26.2
09:05 1026 30.3 855 25.25 7.6 45.6 46 -3.3 26
09:10 1026 30.3 855 25.25 7.2 45 47 -3.4 25.8
09:15 1026 30.3 855 25.25 6.9 44.5 46 -3.7 25.3
09:20 1026 30.3 855 25.25 7.2 44.9 46 -3.8 25.2
09:25 1026 30.3 855 25.25 7.6 45.7 44 -3.9 25.1
09:30 1026 30.3 855 25.25 7.6 45.7 40 -5 23
09:35 1026 30.3 855 25.25 6.8 44.2 45 -4.4 24
09:40 1026 30.3 855 25.25 6.9 44.4 43 -5 23.1
09:45 1026 30.3 855 25.25 5.8 42.5 48 -4.3 24.3
09:50 1026 30.3 855 25.25 6.5 43.7 44 -4.9 23.1
09:55 1026 30.3 855 25.25 7.1 44.7 43 -4.5 23.8
10:00 1026 30.3 855 25.25 6.7 44.1 44 -4.8 23.4
10:05 1026 30.3 855 25.25 6.9 44.4 46 -3.9 25
10:10 1026 30.3 855 25.25 7.8 46 41 -4.7 23.5
10:15 1026 30.3 855 25.25 8.1 46.6 42 -3.9 25
10:20 1026 30.3 855 25.25 8 46.3 42 -4.2 24.4
10:25 1026 30.3 855 25.25 8.1 46.7 42 -4.1 24.6
10:30 1026 30.3 855 25.25 8.4 47.2 42 -3.7 25.3
10:35 1026 30.3 855 25.25 8.6 47.5 45 -2.5 27.5
10:40 1026 30.3 855 25.25 9 48.2 36 -5.1 22.8
10:45 1026 30.3 855 25.25 9.2 48.6 36 -5 23.1
10:50 1026 30.3 855 25.25 9.4 49 34 -5.5 22.1
10:55 1026 30.3 855 25.25 9.4 48.9 32 -6.3 20.7
11:00 1026 30.3 855 25.25 9.1 48.4 35 -5.5 22
11:05 1026 30.3 855 25.25 8.8 47.9 35 -5.8 21.6
11:10 1026 30.3 855 25.25 8.9 48 35 -5.8 21.6
11:15 1026 30.3 855 25.25 9 48.3 35 -5.4 22.3
11:20 1026 30.3 855 25.25 8.7 47.7 36 -5.4 22.3
11:25 1026 30.3 855 25.25 8.5 47.4 38 -4.9 23.1
11:30 1026 30.3 855 25.25 8 46.3 39 -5.1 22.8
11:35 1026 30.3 855 25.25 8.3 47 38 -5.1 22.9
11:40 1026 30.3 855 25.25 7.6 45.6 40 -5.3 22.4
11:45 1025 30.27 855 25.25 7.2 45 41 -5.1 22.8
11:50 1025 30.27 855 25.25 7.5 45.5 41 -4.8 23.3
11:55 1025 30.27 855 25.25 7.8 46.1 41 -4.5 23.8
12:00 1025 30.27 855 25.25 7.8 46 37 -5.9 21.4
12:05 1025 30.27 855 25.25 8.1 46.6 33 -7.3 18.9
12:10 1025 30.27 855 25.25 8.3 46.9 33 -7.1 19.3
12:15 1025 30.27 855 25.25 8.4 47.1 33 -7 19.4
12:20 1025 30.27 854 25.22 8.4 47 32 -7.4 18.6
12:25 1025 30.27 854 25.22 8.2 46.8 29 -8.8 16.2
12:30 1025 30.27 854 25.22 8.4 47.1 28 -8.9 15.9
12:35 1025 30.27 854 25.22 8.8 47.8 28 -8.8 16.2
12:40 1025 30.27 854 25.22 9.1 48.4 29 -8 17.6
12:45 1025 30.27 854 25.22 9.3 48.7 28 -8.1 17.5
12:50 1025 30.27 854 25.22 9.1 48.3 31 -7.3 18.9
12:55 1025 30.27 854 25.22 9 48.1 30 -7.7 18.2
13:00 1025 30.27 854 25.22 9.3 48.8 30 -7.5 18.4
13:05 1025 30.27 854 25.22 9.7 49.4 30 -6.9 19.6
13:10 1025 30.27 854 25.22 10.1 50.3 29 -7.3 18.9
13:15 1025 30.27 854 25.22 9.7 49.5 30 -6.9 19.6
13:20 1025 30.27 854 25.22 9.2 48.6 29 -7.9 17.8
13:25 1025 30.27 854 25.22 9 48.1 29 -8.2 17.3
13:30 1025 30.27 854 25.22 8.9 48 30 -7.9 17.8
13:35 1025 30.27 854 25.22 8.9 47.9 29 -8 17.5
13:40 1025 30.27 854 25.22 8.9 48 31 -7.3 18.8
13:45 1025 30.27 854 25.22 9.9 49.8 28 -7.6 18.3
13:50 1025 30.27 854 25.22 9.9 49.9 31 -6.2 20.8
13:55 1025 30.27 854 25.22 10.3 50.6 29 -6.7 19.9
14:00 1025 30.27 854 25.22 10.3 50.5 29 -7 19.4
14:05 1025 30.27 854 25.22 9.4 48.9 31 -7 19.5
14:10 1025 30.27 854 25.22 9.3 48.8 30 -7.3 18.9
14:15 1025 30.27 854 25.22 9.5 49.1 31 -6.8 19.7
14:20 1025 30.27 854 25.22 9.9 49.7 31 -6.7 20
14:25 1025 30.27 854 25.22 9.9 49.8 31 -6.3 20.6
14:30 1025 30.27 854 25.22 11 51.9 28 -6.6 20.1
14:35 1025 30.27 854 25.22 10.1 50.1 32 -5.8 21.5
14:40 1025 30.27 854 25.22 9.8 49.6 31 -6.4 20.5
14:45 1025 30.27 854 25.22 10 49.9 33 -5.6 22
14:50 1025 30.27 854 25.22 10.1 50.1 33 -5.6 22
14:55 1025 30.27 854 25.22 10 50.1 33 -5.7 21.8
15:00 1025 30.27 854 25.22 9.7 49.5 34 -5.5 22
15:05 1025 30.27 854 25.22 9.9 49.8 33 -5.7 21.7
15:10 1025 30.27 854 25.22 9.9 49.7 32 -6.2 20.8
15:15 1025 30.27 854 25.22 10.1 50.2 33 -5.4 22.2
15:20 1025 30.27 854 25.22 10.5 50.8 30 -6.3 20.6
15:25 1025 30.27 854 25.22 11 51.8 31 -5.5 22.1
15:30 1025 30.27 854 25.22 11.6 52.9 30 -5.4 22.3
15:35 1025 30.27 854 25.22 12.3 54.1 28 -5.7 21.7
15:40 1025 30.27 854 25.22 12.5 54.4 28 -5.5 22.2
15:45 1025 30.27 854 25.22 12.5 54.5 27 -5.9 21.4
15:50 1025 30.27 854 25.22 12 53.6 28 -6.1 21
15:55 1024 30.24 854 25.22 11.6 52.8 29 -5.7 21.8
16:00 1024 30.24 854 25.22 11.5 52.8 30 -5.5 22.2
16:05 1025 30.27 854 25.22 12.3 54.2 29 -5.3 22.4
16:10 1025 30.27 854 25.22 12.2 53.9 30 -4.7 23.5
16:15 1025 30.27 854 25.22 11.4 52.6 33 -4.2 24.4
16:20 1025 30.27 854 25.22 11.2 52.1 33 -4.4 24
16:25 1025 30.27 854 25.22 11.1 52.1 32 -4.8 23.4
16:30 1025 30.27 854 25.22 11.6 52.8 32 -4.7 23.5
16:35 1025 30.27 854 25.22 11.1 51.9 33 -4.4 24
16:40 1025 30.27 854 25.22 10.9 51.6 33 -4.7 23.5
16:45 1025 30.27 854 25.22 10.7 51.3 35 -4 24.8
16:50 1025 30.27 854 25.22 11.1 51.9 34 -4.2 24.4
16:55 1025 30.27 854 25.22 11.2 52.1 33 -4.3 24.2
17:00 1025 30.27 854 25.22 10.8 51.4 34 -4.4 24.2
17:05 1025 30.27 854 25.22 10.9 51.7 34 -4.4 24.2
17:10 1025 30.27 854 25.22 10.9 51.6 34 -4.4 24.1
17:15 1025 30.27 854 25.22 10.7 51.2 35 -4 24.7
17:20 1025 30.27 854 25.22 10.9 51.5 36 -3.5 25.7
17:25 1025 30.27 854 25.22 10.1 50.1 39 -3.2 26.3
17:30 1025 30.27 854 25.22 10.6 51 36 -3.8 25.1
17:35 1025 30.27 854 25.22 11.1 51.9 34 -4.1 24.6
17:40 1024 30.24 854 25.22 11 51.9 36 -3.4 25.9
17:45 1024 30.24 854 25.22 10.6 51.1 35 -4.1 24.7
17:50 1024 30.24 854 25.22 11.3 52.3 35 -3.5 25.7
17:55 1024 30.24 854 25.22 10.7 51.2 39 -2.7 27.1
18:00 1024 30.24 854 25.22 10.3 50.5 38 -3.3 26.1
18:05 1024 30.24 854 25.22 10.1 50.1 39 -3.2 26.2
18:10 1024 30.24 854 25.22 9.7 49.5 39 -3.5 25.7
18:15 1024 30.24 854 25.22 9.9 49.8 41 -2.8 27
18:20 1024 30.24 854 25.22 9.8 49.6 42 -2.5 27.6
18:25 1024 30.24 854 25.22 9.5 49 43 -2.5 27.5
18:30 1024 30.24 854 25.22 9.3 48.8 43 -2.6 27.3
18:35 1024 30.24 854 25.22 9.4 48.9 43 -2.6 27.3
18:40 1024 30.24 853 25.19 9.2 48.5 43 -2.8 26.9
18:45 1024 30.24 854 25.22 9.1 48.4 43 -2.7 27.1
18:50 1024 30.24 854 25.22 9 48.3 43 -2.9 26.8
18:55 1024 30.24 854 25.22 9 48.1 46 -2.1 28.2
19:00 1024 30.24 854 25.22 8.8 47.8 49 -1.2 29.8
19:05 1024 30.24 854 25.22 8.6 47.4 50 -1.3 29.7
19:10 1024 30.24 854 25.22 8.5 47.3 48 -2 28.4
19:15 1024 30.24 854 25.22 8.5 47.2 50 -1.3 29.6
19:20 1024 30.24 854 25.22 8.4 47.1 50 -1.3 29.6
19:25 1024 30.24 854 25.22 8.3 47 50 -1.5 29.4
19:30 1024 30.24 854 25.22 8.2 46.8 54 -0.6 30.9
19:35 1024 30.24 854 25.22 7.8 46 60 0.5 32.9
19:40 1024 30.24 854 25.22 7.2 44.9 62 0.4 32.7
19:45 1024 30.24 854 25.22 6.8 44.2 63 0.3 32.6
19:50 1024 30.24 854 25.22 6.5 43.8 66 0.6 33.1
19:55 1024 30.24 854 25.22 6.1 43.1 67 0.5 33
20:00 1024 30.24 854 25.22 6 42.7 68 0.6 33
20:05 1024 30.24 854 25.22 5.8 42.5 68 0.5 32.8
20:10 1024 30.24 854 25.22 5.6 42.1 69 0.4 32.7
20:15 1024 30.24 854 25.22 5.3 41.6 69 0.1 32.3
20:20 1024 30.24 854 25.22 5.1 41.3 71 0.3 32.5
20:25 1024 30.24 854 25.22 4.9 40.8 71 0.1 32.1
20:30 1024 30.24 854 25.22 4.7 40.4 71 -0.1 31.9
20:35 1025 30.27 854 25.22 4.5 40.2 71 -0.3 31.4
20:40 1025 30.27 854 25.22 4.4 39.8 71 -0.4 31.2
20:45 1025 30.27 854 25.22 4.2 39.6 71 -0.5 31.1
20:50 1025 30.27 854 25.22 4.2 39.5 72 -0.5 31.1
20:55 1025 30.27 854 25.22 3.9 39.1 74 -0.3 31.4
21:00 1025 30.27 854 25.22 3.6 38.6 73 -0.7 30.8
21:05 1025 30.27 854 25.22 3.6 38.5 74 -0.7 30.8
21:10 1024 30.24 854 25.22 3.5 38.2 74 -0.7 30.8
21:15 1024 30.24 854 25.22 3.4 38 75 -0.6 30.8
21:20 1024 30.24 854 25.22 3.3 37.9 75 -0.8 30.6
21:25 1024 30.24 854 25.22 3.3 38 75 -0.8 30.6
21:30 1024 30.24 854 25.22 3.4 38.2 74 -0.7 30.8
21:35 1024 30.24 854 25.22 3.5 38.4 74 -0.7 30.8
21:40 1024 30.24 854 25.22 3.5 38.4 74 -0.6 30.9
21:45 1024 30.24 854 25.22 3.6 38.4 73 -0.8 30.6
21:50 1024 30.24 854 25.22 3.6 38.5 73 -0.7 30.8
21:55 1024 30.24 853 25.19 3.6 38.5 73 -0.8 30.5
22:00 1024 30.24 853 25.19 3.6 38.6 72 -0.9 30.3
22:05 1024 30.24 853 25.19 3.6 38.5 71 -1.1 30.1
22:10 1024 30.24 853 25.19 3.7 38.7 71 -1 30.2
22:15 1024 30.24 853 25.19 3.7 38.6 71 -1.1 30.1
22:20 1024 30.24 853 25.19 3.5 38.4 72 -1.1 30.1
22:25 1024 30.24 853 25.19 3.4 38.2 72 -1.2 29.8
22:30 1024 30.24 853 25.19 3.5 38.3 72 -1.1 30
22:35 1024 30.24 853 25.19 3.5 38.3 71 -1.2 29.8
22:40 1024 30.24 853 25.19 3.5 38.2 72 -1.2 29.8
22:45 1024 30.24 853 25.19 3.4 38.1 71 -1.3 29.6
22:50 1024 30.24 853 25.19 3.4 38.1 71 -1.3 29.7
22:55 1024 30.24 853 25.19 3.4 38.2 71 -1.3 29.6
23:00 1024 30.24 853 25.19 3.4 38.2 71 -1.4 29.5
23:05 1024 30.24 853 25.19 3.4 38.1 71 -1.4 29.4
23:10 1024 30.24 853 25.19 3.5 38.2 70 -1.5 29.3
23:15 1024 30.24 853 25.19 3.5 38.3 70 -1.6 29.2
23:20 1024 30.24 853 25.19 3.5 38.3 69 -1.6 29.1
23:25 1024 30.24 853 25.19 3.5 38.4 68 -1.7 28.9
23:30 1024 30.24 853 25.19 3.7 38.7 68 -1.6 29
23:35 1024 30.24 853 25.19 3.7 38.6 67 -1.8 28.8
23:40 1024 30.24 853 25.19 3.6 38.6 67 -1.8 28.7
23:45 1024 30.24 853 25.19 3.5 38.4 69 -1.6 29.2
23:50 1024 30.24 853 25.19 3.6 38.4 68 -1.9 28.6
23:55 1024 30.24 853 25.19 3.6 38.5 69 -1.6 29.1
24:00 1024 30.24 853 25.19 3.5 38.2 68 -1.9 28.6